sensor_id;sensor_type;location;lat;lon;timestamp;pressure;altitude;pressure_sealevel;temperature;humidity
50268;BME280;36153;50.960;6.220;2022-12-18T00:02:51;101773.47;;;-2.97;59.89
50268;BME280;36153;50.960;6.220;2022-12-18T00:05:52;101770.16;;;-2.96;59.57
50268;BME280;36153;50.960;6.220;2022-12-18T00:08:54;101776.38;;;-3.02;59.37
50268;BME280;36153;50.960;6.220;2022-12-18T00:11:54;101768.09;;;-3.10;59.58
50268;BME280;36153;50.960;6.220;2022-12-18T00:14:55;101774.94;;;-3.09;59.48
50268;BME280;36153;50.960;6.220;2022-12-18T00:17:55;101771.13;;;-3.14;59.60
50268;BME280;36153;50.960;6.220;2022-12-18T00:20:59;101778.91;;;-3.13;59.67
50268;BME280;36153;50.960;6.220;2022-12-18T00:24:01;101772.50;;;-3.18;60.41
50268;BME280;36153;50.960;6.220;2022-12-18T00:27:01;101761.66;;;-2.96;60.24
50268;BME280;36153;50.960;6.220;2022-12-18T00:30:02;101762.03;;;-2.92;59.80
50268;BME280;36153;50.960;6.220;2022-12-18T00:33:03;101766.13;;;-2.94;60.08
50268;BME280;36153;50.960;6.220;2022-12-18T00:36:05;101759.47;;;-2.92;59.86
50268;BME280;36153;50.960;6.220;2022-12-18T00:39:06;101764.34;;;-2.84;59.78
50268;BME280;36153;50.960;6.220;2022-12-18T00:42:08;101755.81;;;-2.75;59.81
50268;BME280;36153;50.960;6.220;2022-12-18T00:45:31;101754.31;;;-2.72;59.25
50268;BME280;36153;50.960;6.220;2022-12-18T00:48:32;101758.47;;;-2.83;58.61
50268;BME280;36153;50.960;6.220;2022-12-18T00:51:32;101758.69;;;-3.01;58.53
50268;BME280;36153;50.960;6.220;2022-12-18T00:54:33;101753.06;;;-3.07;59.36
50268;BME280;36153;50.960;6.220;2022-12-18T00:57:33;101756.56;;;-3.26;59.48
50268;BME280;36153;50.960;6.220;2022-12-18T01:00:34;101758.81;;;-3.29;60.11
50268;BME280;36153;50.960;6.220;2022-12-18T01:03:34;101763.44;;;-3.24;60.26
50268;BME280;36153;50.960;6.220;2022-12-18T01:06:35;101758.88;;;-3.18;60.35
50268;BME280;36153;50.960;6.220;2022-12-18T01:09:35;101750.78;;;-3.04;59.84
50268;BME280;36153;50.960;6.220;2022-12-18T01:12:35;101745.44;;;-3.07;59.10
50268;BME280;36153;50.960;6.220;2022-12-18T01:15:36;101745.56;;;-3.05;58.83
50268;BME280;36153;50.960;6.220;2022-12-18T01:18:36;101751.75;;;-3.22;58.81
50268;BME280;36153;50.960;6.220;2022-12-18T01:21:36;101742.31;;;-3.13;58.65
50268;BME280;36153;50.960;6.220;2022-12-18T01:24:37;101745.91;;;-3.11;58.59
50268;BME280;36153;50.960;6.220;2022-12-18T01:27:37;101748.34;;;-3.13;58.73
50268;BME280;36153;50.960;6.220;2022-12-18T01:30:37;101747.25;;;-3.25;59.23
50268;BME280;36153;50.960;6.220;2022-12-18T01:33:38;101746.59;;;-3.03;59.56
50268;BME280;36153;50.960;6.220;2022-12-18T01:36:38;101741.69;;;-3.11;59.14
50268;BME280;36153;50.960;6.220;2022-12-18T01:39:41;101751.47;;;-3.26;59.22
50268;BME280;36153;50.960;6.220;2022-12-18T01:42:42;101740.56;;;-3.14;59.47
50268;BME280;36153;50.960;6.220;2022-12-18T01:45:42;101747.22;;;-3.06;59.55
50268;BME280;36153;50.960;6.220;2022-12-18T01:48:45;101742.00;;;-3.07;59.46
50268;BME280;36153;50.960;6.220;2022-12-18T01:51:46;101741.34;;;-3.05;59.64
50268;BME280;36153;50.960;6.220;2022-12-18T01:54:48;101735.75;;;-3.01;59.90
50268;BME280;36153;50.960;6.220;2022-12-18T01:57:55;101746.47;;;-2.95;59.79
50268;BME280;36153;50.960;6.220;2022-12-18T02:00:57;101744.06;;;-2.83;59.08
50268;BME280;36153;50.960;6.220;2022-12-18T02:04:21;101748.78;;;-2.77;59.35
50268;BME280;36153;50.960;6.220;2022-12-18T02:17:52;101729.16;;;-2.88;59.40
50268;BME280;36153;50.960;6.220;2022-12-18T02:27:16;101738.59;;;-2.87;59.40
50268;BME280;36153;50.960;6.220;2022-12-18T02:30:17;101736.84;;;-2.78;59.39
50268;BME280;36153;50.960;6.220;2022-12-18T02:33:20;101739.91;;;-2.82;59.45
50268;BME280;36153;50.960;6.220;2022-12-18T02:36:22;101737.47;;;-2.81;59.21
50268;BME280;36153;50.960;6.220;2022-12-18T02:39:26;101745.88;;;-2.71;59.19
50268;BME280;36153;50.960;6.220;2022-12-18T02:42:28;101737.47;;;-2.81;58.54
50268;BME280;36153;50.960;6.220;2022-12-18T02:45:29;101743.44;;;-2.80;58.58
50268;BME280;36153;50.960;6.220;2022-12-18T02:48:31;101731.19;;;-2.84;59.04
50268;BME280;36153;50.960;6.220;2022-12-18T02:51:47;101732.50;;;-2.69;59.06
50268;BME280;36153;50.960;6.220;2022-12-18T02:55:18;101735.44;;;-2.75;58.59
50268;BME280;36153;50.960;6.220;2022-12-18T03:02:24;101719.88;;;-2.78;59.07
50268;BME280;36153;50.960;6.220;2022-12-18T03:05:32;101717.97;;;-2.80;59.08
50268;BME280;36153;50.960;6.220;2022-12-18T03:08:37;101717.97;;;-2.80;58.98
50268;BME280;36153;50.960;6.220;2022-12-18T03:11:41;101718.59;;;-2.83;58.71
50268;BME280;36153;50.960;6.220;2022-12-18T03:15:14;101709.69;;;-2.88;59.53
50268;BME280;36153;50.960;6.220;2022-12-18T03:18:21;101703.69;;;-2.88;59.47
50268;BME280;36153;50.960;6.220;2022-12-18T03:21:30;101706.22;;;-2.99;59.49
50268;BME280;36153;50.960;6.220;2022-12-18T03:24:33;101696.53;;;-3.03;59.39
50268;BME280;36153;50.960;6.220;2022-12-18T03:27:36;101689.63;;;-3.04;59.82
50268;BME280;36153;50.960;6.220;2022-12-18T03:30:40;101682.91;;;-2.93;60.12
50268;BME280;36153;50.960;6.220;2022-12-18T03:33:46;101678.06;;;-3.00;59.83
50268;BME280;36153;50.960;6.220;2022-12-18T03:36:47;101682.75;;;-3.05;60.35
50268;BME280;36153;50.960;6.220;2022-12-18T03:39:47;101684.91;;;-2.99;60.15
50268;BME280;36153;50.960;6.220;2022-12-18T03:45:57;101686.22;;;-3.04;60.44
50268;BME280;36153;50.960;6.220;2022-12-18T03:49:01;101682.91;;;-3.03;60.28
50268;BME280;36153;50.960;6.220;2022-12-18T03:52:11;101688.34;;;-3.09;60.45
50268;BME280;36153;50.960;6.220;2022-12-18T03:55:13;101676.16;;;-3.03;60.19
50268;BME280;36153;50.960;6.220;2022-12-18T03:58:18;101674.22;;;-3.05;60.32
50268;BME280;36153;50.960;6.220;2022-12-18T04:01:24;101661.25;;;-2.98;60.65
50268;BME280;36153;50.960;6.220;2022-12-18T04:04:27;101667.25;;;-2.98;60.20
50268;BME280;36153;50.960;6.220;2022-12-18T04:07:28;101668.25;;;-2.96;60.28
50268;BME280;36153;50.960;6.220;2022-12-18T04:10:29;101668.75;;;-3.00;60.61
50268;BME280;36153;50.960;6.220;2022-12-18T04:13:34;101656.28;;;-2.97;60.28
50268;BME280;36153;50.960;6.220;2022-12-18T04:16:35;101650.03;;;-2.90;60.45
50268;BME280;36153;50.960;6.220;2022-12-18T04:19:35;101655.50;;;-2.85;60.54
50268;BME280;36153;50.960;6.220;2022-12-18T04:22:35;101659.09;;;-2.83;60.01
50268;BME280;36153;50.960;6.220;2022-12-18T04:25:36;101672.72;;;-2.83;59.50
50268;BME280;36153;50.960;6.220;2022-12-18T04:28:36;101678.59;;;-2.84;59.53
50268;BME280;36153;50.960;6.220;2022-12-18T04:31:36;101675.41;;;-2.92;59.64
50268;BME280;36153;50.960;6.220;2022-12-18T04:34:37;101673.84;;;-3.00;59.29
50268;BME280;36153;50.960;6.220;2022-12-18T04:37:37;101675.78;;;-2.97;59.59
50268;BME280;36153;50.960;6.220;2022-12-18T04:40:38;101669.63;;;-2.99;59.61
50268;BME280;36153;50.960;6.220;2022-12-18T04:43:38;101654.00;;;-2.94;59.70
50268;BME280;36153;50.960;6.220;2022-12-18T04:46:39;101652.22;;;-2.95;59.75
50268;BME280;36153;50.960;6.220;2022-12-18T04:49:39;101644.56;;;-2.95;59.81
50268;BME280;36153;50.960;6.220;2022-12-18T04:52:39;101636.94;;;-2.95;59.41
50268;BME280;36153;50.960;6.220;2022-12-18T04:55:40;101636.00;;;-2.95;59.56
50268;BME280;36153;50.960;6.220;2022-12-18T04:58:42;101652.97;;;-2.96;59.62
50268;BME280;36153;50.960;6.220;2022-12-18T05:01:43;101652.22;;;-2.95;59.22
50268;BME280;36153;50.960;6.220;2022-12-18T05:04:43;101662.25;;;-3.06;59.49
50268;BME280;36153;50.960;6.220;2022-12-18T05:07:43;101667.25;;;-2.98;59.45
50268;BME280;36153;50.960;6.220;2022-12-18T05:10:44;101671.84;;;-2.83;58.55
50268;BME280;36153;50.960;6.220;2022-12-18T05:13:45;101675.16;;;-2.84;58.41
50268;BME280;36153;50.960;6.220;2022-12-18T05:16:45;101685.75;;;-2.69;57.89
50268;BME280;36153;50.960;6.220;2022-12-18T05:19:45;101688.88;;;-2.93;57.44
50268;BME280;36153;50.960;6.220;2022-12-18T05:22:46;101688.63;;;-3.06;57.57
50268;BME280;36153;50.960;6.220;2022-12-18T05:25:53;101696.56;;;-3.32;58.51
50268;BME280;36153;50.960;6.220;2022-12-18T05:28:54;101710.69;;;-3.36;59.44
50268;BME280;36153;50.960;6.220;2022-12-18T05:31:55;101690.84;;;-3.30;59.68
50268;BME280;36153;50.960;6.220;2022-12-18T05:34:56;101685.53;;;-3.22;59.96
50268;BME280;36153;50.960;6.220;2022-12-18T05:37:57;101696.22;;;-3.16;59.79
50268;BME280;36153;50.960;6.220;2022-12-18T05:40:58;101696.22;;;-3.16;59.46
50268;BME280;36153;50.960;6.220;2022-12-18T05:43:58;101696.91;;;-3.09;59.78
50268;BME280;36153;50.960;6.220;2022-12-18T05:46:59;101687.31;;;-3.21;59.79
50268;BME280;36153;50.960;6.220;2022-12-18T05:49:59;101688.47;;;-3.18;59.98
50268;BME280;36153;50.960;6.220;2022-12-18T05:52:59;101681.19;;;-3.13;60.20
50268;BME280;36153;50.960;6.220;2022-12-18T05:56:02;101673.44;;;-3.15;60.27
50268;BME280;36153;50.960;6.220;2022-12-18T05:59:02;101664.44;;;-2.90;60.35
50268;BME280;36153;50.960;6.220;2022-12-18T06:02:03;101661.50;;;-2.95;59.94
50268;BME280;36153;50.960;6.220;2022-12-18T06:05:04;101660.09;;;-2.92;59.83
50268;BME280;36153;50.960;6.220;2022-12-18T06:08:05;101672.84;;;-2.92;60.18
50268;BME280;36153;50.960;6.220;2022-12-18T06:11:05;101675.16;;;-2.84;59.71
50268;BME280;36153;50.960;6.220;2022-12-18T06:14:06;101684.72;;;-2.82;59.54
50268;BME280;36153;50.960;6.220;2022-12-18T06:17:06;101677.19;;;-2.80;59.97
50268;BME280;36153;50.960;6.220;2022-12-18T06:20:07;101674.50;;;-2.82;60.03
50268;BME280;36153;50.960;6.220;2022-12-18T06:23:08;101670.97;;;-2.73;60.01
50268;BME280;36153;50.960;6.220;2022-12-18T06:26:11;101670.44;;;-2.69;59.96
50268;BME280;36153;50.960;6.220;2022-12-18T06:29:12;101671.72;;;-2.75;59.89
50268;BME280;36153;50.960;6.220;2022-12-18T06:32:12;101670.44;;;-2.69;59.71
50268;BME280;36153;50.960;6.220;2022-12-18T06:35:13;101671.63;;;-2.66;59.91
50268;BME280;36153;50.960;6.220;2022-12-18T06:38:13;101665.13;;;-2.52;59.50
50268;BME280;36153;50.960;6.220;2022-12-18T06:41:16;101669.94;;;-2.45;59.28
50268;BME280;36153;50.960;6.220;2022-12-18T06:44:17;101659.09;;;-2.52;59.08
50268;BME280;36153;50.960;6.220;2022-12-18T06:47:18;101663.81;;;-2.47;59.40
50268;BME280;36153;50.960;6.220;2022-12-18T06:50:18;101671.88;;;-2.42;59.20
50268;BME280;36153;50.960;6.220;2022-12-18T06:53:18;101667.38;;;-2.34;58.87
50268;BME280;36153;50.960;6.220;2022-12-18T06:56:19;101665.22;;;-2.40;58.92
50268;BME280;36153;50.960;6.220;2022-12-18T06:59:19;101670.69;;;-2.35;58.70
50268;BME280;36153;50.960;6.220;2022-12-18T07:02:19;101671.47;;;-2.36;58.75
50268;BME280;36153;50.960;6.220;2022-12-18T07:05:20;101679.34;;;-2.44;58.40
50268;BME280;36153;50.960;6.220;2022-12-18T07:08:20;101678.47;;;-2.44;58.64
50268;BME280;36153;50.960;6.220;2022-12-18T07:11:21;101664.34;;;-2.41;58.83
50268;BME280;36153;50.960;6.220;2022-12-18T07:14:21;101666.25;;;-2.59;58.65
50268;BME280;36153;50.960;6.220;2022-12-18T07:17:22;101665.13;;;-2.52;59.04
50268;BME280;36153;50.960;6.220;2022-12-18T07:20:22;101651.09;;;-2.57;58.72
50268;BME280;36153;50.960;6.220;2022-12-18T07:23:22;101656.56;;;-2.52;58.99
50268;BME280;36153;50.960;6.220;2022-12-18T07:26:23;101658.47;;;-2.50;58.62
50268;BME280;36153;50.960;6.220;2022-12-18T07:29:23;101665.75;;;-2.54;58.52
50268;BME280;36153;50.960;6.220;2022-12-18T07:32:24;101660.53;;;-2.56;58.84
50268;BME280;36153;50.960;6.220;2022-12-18T07:35:24;101662.28;;;-2.45;58.82
50268;BME280;36153;50.960;6.220;2022-12-18T07:38:24;101652.47;;;-2.61;58.70
50268;BME280;36153;50.960;6.220;2022-12-18T07:41:25;101655.94;;;-2.60;59.30
50268;BME280;36153;50.960;6.220;2022-12-18T07:44:25;101629.78;;;-2.58;59.67
50268;BME280;36153;50.960;6.220;2022-12-18T07:47:26;101623.91;;;-2.57;59.16
50268;BME280;36153;50.960;6.220;2022-12-18T07:50:26;101613.22;;;-2.52;59.49
50268;BME280;36153;50.960;6.220;2022-12-18T07:53:27;101605.28;;;-2.45;59.65
50268;BME280;36153;50.960;6.220;2022-12-18T07:56:27;101604.00;;;-2.40;59.47
50268;BME280;36153;50.960;6.220;2022-12-18T07:59:27;101595.34;;;-2.32;59.26
50268;BME280;36153;50.960;6.220;2022-12-18T08:02:30;101595.06;;;-2.25;58.93
50268;BME280;36153;50.960;6.220;2022-12-18T08:05:31;101588.44;;;-2.22;59.11
50268;BME280;36153;50.960;6.220;2022-12-18T08:08:31;101594.00;;;-2.16;58.90
50268;BME280;36153;50.960;6.220;2022-12-18T08:11:31;101582.59;;;-1.99;58.89
50268;BME280;36153;50.960;6.220;2022-12-18T08:14:32;101575.06;;;-1.98;58.88
50268;BME280;36153;50.960;6.220;2022-12-18T08:17:32;101580.44;;;-1.95;58.87
50268;BME280;36153;50.960;6.220;2022-12-18T08:20:32;101581.75;;;-1.78;58.53
50268;BME280;36153;50.960;6.220;2022-12-18T08:23:32;101573.19;;;-1.78;58.26
50268;BME280;36153;50.960;6.220;2022-12-18T08:26:33;101573.88;;;-1.59;58.27
50268;BME280;36153;50.960;6.220;2022-12-18T08:29:33;101584.31;;;-1.56;57.98
50268;BME280;36153;50.960;6.220;2022-12-18T08:32:34;101589.59;;;-1.42;57.61
50268;BME280;36153;50.960;6.220;2022-12-18T08:35:35;101581.16;;;-1.41;57.74
50268;BME280;36153;50.960;6.220;2022-12-18T08:38:37;101575.44;;;-1.27;57.50
50268;BME280;36153;50.960;6.220;2022-12-18T08:41:37;101574.34;;;-1.30;57.35
50268;BME280;36153;50.960;6.220;2022-12-18T08:44:37;101578.16;;;-1.13;57.54
50268;BME280;36153;50.960;6.220;2022-12-18T08:47:38;101577.69;;;-0.97;57.06
50268;BME280;36153;50.960;6.220;2022-12-18T08:50:38;101573.28;;;-1.10;57.04
50268;BME280;36153;50.960;6.220;2022-12-18T08:53:38;101578.22;;;-0.90;57.36
50268;BME280;36153;50.960;6.220;2022-12-18T08:56:39;101579.00;;;-0.91;57.15
50268;BME280;36153;50.960;6.220;2022-12-18T08:59:39;101580.03;;;-0.89;57.24
50268;BME280;36153;50.960;6.220;2022-12-18T09:02:40;101575.28;;;-1.06;57.19
50268;BME280;36153;50.960;6.220;2022-12-18T09:05:40;101563.13;;;-0.87;57.18
50268;BME280;36153;50.960;6.220;2022-12-18T09:08:41;101557.13;;;-0.75;57.09
50268;BME280;36153;50.960;6.220;2022-12-18T09:11:42;101547.94;;;-0.73;56.93
50268;BME280;36153;50.960;6.220;2022-12-18T09:14:42;101536.94;;;-0.72;57.05
50268;BME280;36153;50.960;6.220;2022-12-18T09:17:43;101536.25;;;-0.58;56.77
50268;BME280;36153;50.960;6.220;2022-12-18T09:20:44;101534.91;;;-0.41;56.42
50268;BME280;36153;50.960;6.220;2022-12-18T09:23:50;101532.25;;;-0.42;56.56
50268;BME280;36153;50.960;6.220;2022-12-18T09:26:53;101526.81;;;-0.35;56.44
50268;BME280;36153;50.960;6.220;2022-12-18T09:29:54;101533.81;;;-0.21;56.22
50268;BME280;36153;50.960;6.220;2022-12-18T09:32:56;101537.13;;;0.02;55.99
50268;BME280;36153;50.960;6.220;2022-12-18T09:35:56;101538.44;;;-0.03;55.79
50268;BME280;36153;50.960;6.220;2022-12-18T09:38:56;101525.28;;;0.04;56.05
50268;BME280;36153;50.960;6.220;2022-12-18T09:41:57;101536.94;;;0.24;55.89
50268;BME280;36153;50.960;6.220;2022-12-18T09:44:59;101521.91;;;0.29;55.68
50268;BME280;36153;50.960;6.220;2022-12-18T09:48:00;101520.56;;;0.34;55.30
50268;BME280;36153;50.960;6.220;2022-12-18T09:51:05;101528.72;;;0.54;55.39
50268;BME280;36153;50.960;6.220;2022-12-18T09:54:12;101515.81;;;0.52;55.19
50268;BME280;36153;50.960;6.220;2022-12-18T09:57:17;101512.66;;;0.56;55.04
50268;BME280;36153;50.960;6.220;2022-12-18T10:00:23;101509.16;;;0.67;54.94
50268;BME280;36153;50.960;6.220;2022-12-18T10:03:24;101497.31;;;0.70;54.95
50268;BME280;36153;50.960;6.220;2022-12-18T10:09:55;101503.59;;;0.87;54.48
50268;BME280;36153;50.960;6.220;2022-12-18T10:13:08;101505.91;;;1.22;54.32
50268;BME280;36153;50.960;6.220;2022-12-18T10:16:29;101503.09;;;1.31;54.13
50268;BME280;36153;50.960;6.220;2022-12-18T10:19:39;101498.13;;;1.21;53.91
50268;BME280;36153;50.960;6.220;2022-12-18T10:22:54;101507.00;;;1.39;54.08
50268;BME280;36153;50.960;6.220;2022-12-18T10:26:03;101504.06;;;1.60;54.44
50268;BME280;36153;50.960;6.220;2022-12-18T10:29:11;101505.25;;;1.65;54.12
50268;BME280;36153;50.960;6.220;2022-12-18T10:32:18;101504.16;;;1.61;53.83
50268;BME280;36153;50.960;6.220;2022-12-18T10:35:25;101504.66;;;1.69;53.63
50268;BME280;36153;50.960;6.220;2022-12-18T10:38:35;101504.31;;;1.91;53.63
50268;BME280;36153;50.960;6.220;2022-12-18T10:41:35;101504.06;;;2.15;53.41
50268;BME280;36153;50.960;6.220;2022-12-18T10:44:36;101500.97;;;2.34;52.96
50268;BME280;36153;50.960;6.220;2022-12-18T10:47:36;101507.16;;;2.37;52.38
50268;BME280;36153;50.960;6.220;2022-12-18T10:50:47;101499.84;;;2.59;52.38
50268;BME280;36153;50.960;6.220;2022-12-18T10:54:15;101489.78;;;2.62;51.80
50268;BME280;36153;50.960;6.220;2022-12-18T11:00:30;101481.94;;;2.60;52.15
50268;BME280;36153;50.960;6.220;2022-12-18T11:03:47;101478.16;;;2.83;52.63
50268;BME280;36153;50.960;6.220;2022-12-18T11:07:03;101483.84;;;2.78;51.76
50268;BME280;36153;50.960;6.220;2022-12-18T11:10:04;101472.22;;;2.69;51.80
50268;BME280;36153;50.960;6.220;2022-12-18T11:13:15;101460.22;;;2.70;52.51
50268;BME280;36153;50.960;6.220;2022-12-18T11:16:19;101453.50;;;2.57;51.78
50268;BME280;36153;50.960;6.220;2022-12-18T11:19:35;101430.44;;;2.59;52.02
50268;BME280;36153;50.960;6.220;2022-12-18T11:22:37;101427.78;;;2.57;52.79
50268;BME280;36153;50.960;6.220;2022-12-18T11:25:38;101439.16;;;2.61;52.96
50268;BME280;36153;50.960;6.220;2022-12-18T11:28:43;101427.97;;;2.60;52.74
50268;BME280;36153;50.960;6.220;2022-12-18T11:31:44;101418.59;;;2.61;52.64
50268;BME280;36153;50.960;6.220;2022-12-18T11:34:46;101413.44;;;2.61;52.83
50268;BME280;36153;50.960;6.220;2022-12-18T11:37:54;101413.00;;;2.68;52.86
50268;BME280;36153;50.960;6.220;2022-12-18T11:41:14;101413.09;;;2.84;52.78
50268;BME280;36153;50.960;6.220;2022-12-18T11:44:25;101412.81;;;2.80;52.13
50268;BME280;36153;50.960;6.220;2022-12-18T11:50:53;101413.34;;;2.89;52.47
50268;BME280;36153;50.960;6.220;2022-12-18T11:53:54;101415.56;;;2.83;52.52
50268;BME280;36153;50.960;6.220;2022-12-18T11:57:07;101397.38;;;2.95;52.14
50268;BME280;36153;50.960;6.220;2022-12-18T12:00:18;101399.44;;;2.85;52.46
50268;BME280;36153;50.960;6.220;2022-12-18T12:03:27;101395.59;;;2.94;52.39
50268;BME280;36153;50.960;6.220;2022-12-18T12:13:49;101388.56;;;3.06;52.45
50268;BME280;36153;50.960;6.220;2022-12-18T12:17:18;101382.53;;;3.20;52.41
50268;BME280;36153;50.960;6.220;2022-12-18T12:30:10;101377.13;;;3.47;51.80
50268;BME280;36153;50.960;6.220;2022-12-18T12:36:20;101369.72;;;3.53;51.73
50268;BME280;36153;50.960;6.220;2022-12-18T12:39:30;101367.63;;;3.46;51.44
50268;BME280;36153;50.960;6.220;2022-12-18T12:42:35;101349.94;;;3.52;52.05
50268;BME280;36153;50.960;6.220;2022-12-18T12:46:00;101347.44;;;3.54;51.93
50268;BME280;36153;50.960;6.220;2022-12-18T12:49:04;101336.38;;;3.55;51.29
50268;BME280;36153;50.960;6.220;2022-12-18T12:52:43;101321.88;;;3.57;50.95
50268;BME280;36153;50.960;6.220;2022-12-18T12:55:42;101333.50;;;3.34;51.07
50268;BME280;36153;50.960;6.220;2022-12-18T13:02:33;101330.34;;;3.23;51.31
50268;BME280;36153;50.960;6.220;2022-12-18T13:05:58;101306.72;;;3.30;51.00
50268;BME280;36153;50.960;6.220;2022-12-18T13:09:00;101312.22;;;3.21;51.29
50268;BME280;36153;50.960;6.220;2022-12-18T13:12:03;101313.22;;;3.23;51.33
50268;BME280;36153;50.960;6.220;2022-12-18T13:18:32;101296.09;;;3.24;51.63
50268;BME280;36153;50.960;6.220;2022-12-18T13:21:33;101293.94;;;3.32;51.44
50268;BME280;36153;50.960;6.220;2022-12-18T13:24:34;101289.44;;;3.28;50.90
50268;BME280;36153;50.960;6.220;2022-12-18T13:33:47;101270.34;;;3.24;51.01
50268;BME280;36153;50.960;6.220;2022-12-18T13:36:48;101277.59;;;3.31;51.11
50268;BME280;36153;50.960;6.220;2022-12-18T13:39:49;101265.47;;;3.29;50.55
50268;BME280;36153;50.960;6.220;2022-12-18T13:42:49;101272.84;;;3.22;50.56
50268;BME280;36153;50.960;6.220;2022-12-18T13:49:46;101256.47;;;3.37;50.96
50268;BME280;36153;50.960;6.220;2022-12-18T13:52:45;101259.66;;;3.16;51.19
50268;BME280;36153;50.960;6.220;2022-12-18T13:55:46;101260.31;;;3.12;51.64
50268;BME280;36153;50.960;6.220;2022-12-18T13:59:03;101262.59;;;2.91;51.67
50268;BME280;36153;50.960;6.220;2022-12-18T14:05:29;101257.06;;;3.00;51.93
50268;BME280;36153;50.960;6.220;2022-12-18T14:08:40;101255.03;;;2.94;51.91
50268;BME280;36153;50.960;6.220;2022-12-18T14:11:47;101248.28;;;2.96;51.99
50268;BME280;36153;50.960;6.220;2022-12-18T14:14:49;101241.63;;;3.00;51.75
50268;BME280;36153;50.960;6.220;2022-12-18T14:17:53;101239.69;;;2.96;51.67
50268;BME280;36153;50.960;6.220;2022-12-18T14:20:57;101226.41;;;2.88;51.68
50268;BME280;36153;50.960;6.220;2022-12-18T14:24:17;101243.63;;;2.89;51.90
50268;BME280;36153;50.960;6.220;2022-12-18T14:27:22;101241.19;;;2.92;52.07
50268;BME280;36153;50.960;6.220;2022-12-18T14:33:26;101245.50;;;3.08;51.65
50268;BME280;36153;50.960;6.220;2022-12-18T14:36:28;101243.97;;;2.95;51.91
50268;BME280;36153;50.960;6.220;2022-12-18T14:39:29;101254.53;;;2.85;52.00
50268;BME280;36153;50.960;6.220;2022-12-18T14:42:29;101261.78;;;2.92;52.05
50268;BME280;36153;50.960;6.220;2022-12-18T14:45:34;101255.59;;;2.88;51.97
50268;BME280;36153;50.960;6.220;2022-12-18T14:48:40;101255.59;;;2.88;51.97
50268;BME280;36153;50.960;6.220;2022-12-18T14:51:47;101238.63;;;2.76;51.93
50268;BME280;36153;50.960;6.220;2022-12-18T14:54:48;101248.44;;;2.83;51.81
50268;BME280;36153;50.960;6.220;2022-12-18T14:57:51;101245.03;;;2.84;52.03
50268;BME280;36153;50.960;6.220;2022-12-18T15:00:52;101249.94;;;2.79;51.91
50268;BME280;36153;50.960;6.220;2022-12-18T15:03:55;101265.53;;;2.82;52.21
50268;BME280;36153;50.960;6.220;2022-12-18T15:07:12;101260.69;;;2.72;52.13
50268;BME280;36153;50.960;6.220;2022-12-18T15:13:22;101266.91;;;2.76;52.38
50268;BME280;36153;50.960;6.220;2022-12-18T15:16:24;101279.91;;;2.79;52.17
50268;BME280;36153;50.960;6.220;2022-12-18T15:19:34;101276.44;;;2.78;52.64
50268;BME280;36153;50.960;6.220;2022-12-18T15:22:37;101268.72;;;2.78;53.12
50268;BME280;36153;50.960;6.220;2022-12-18T15:25:37;101266.00;;;2.75;52.74
50268;BME280;36153;50.960;6.220;2022-12-18T15:28:44;101258.75;;;2.68;52.85
50268;BME280;36153;50.960;6.220;2022-12-18T15:35:14;101259.84;;;2.56;52.94
50268;BME280;36153;50.960;6.220;2022-12-18T15:38:15;101262.06;;;2.50;53.22
50268;BME280;36153;50.960;6.220;2022-12-18T15:41:20;101252.69;;;2.36;53.51
50268;BME280;36153;50.960;6.220;2022-12-18T15:44:23;101244.34;;;2.40;53.58
50268;BME280;36153;50.960;6.220;2022-12-18T15:47:24;101247.31;;;2.31;53.76
50268;BME280;36153;50.960;6.220;2022-12-18T15:50:25;101240.47;;;2.32;53.73
50268;BME280;36153;50.960;6.220;2022-12-18T15:53:30;101249.03;;;2.32;53.39
50268;BME280;36153;50.960;6.220;2022-12-18T15:56:31;101245.78;;;2.35;53.49
50268;BME280;36153;50.960;6.220;2022-12-18T15:59:51;101244.91;;;2.34;53.47
50268;BME280;36153;50.960;6.220;2022-12-18T16:02:52;101241.69;;;2.38;53.52
50268;BME280;36153;50.960;6.220;2022-12-18T16:05:53;101243.75;;;2.29;53.85
50268;BME280;36153;50.960;6.220;2022-12-18T16:08:53;101246.06;;;2.39;53.58
50268;BME280;36153;50.960;6.220;2022-12-18T16:11:53;101246.06;;;2.25;53.86
50268;BME280;36153;50.960;6.220;2022-12-18T16:14:54;101247.22;;;2.30;53.71
50268;BME280;36153;50.960;6.220;2022-12-18T16:17:54;101242.94;;;2.15;54.04
50268;BME280;36153;50.960;6.220;2022-12-18T16:20:54;101237.31;;;2.06;54.26
50268;BME280;36153;50.960;6.220;2022-12-18T16:23:55;101237.47;;;2.24;54.15
50268;BME280;36153;50.960;6.220;2022-12-18T16:26:57;101239.59;;;2.16;54.49
50268;BME280;36153;50.960;6.220;2022-12-18T16:29:58;101227.19;;;2.09;54.64
50268;BME280;36153;50.960;6.220;2022-12-18T16:32:59;101225.06;;;2.17;54.63
50268;BME280;36153;50.960;6.220;2022-12-18T16:35:59;101222.16;;;2.11;54.45
50268;BME280;36153;50.960;6.220;2022-12-18T16:39:00;101233.75;;;2.04;54.71
50268;BME280;36153;50.960;6.220;2022-12-18T16:42:06;101221.97;;;2.08;54.58
50268;BME280;36153;50.960;6.220;2022-12-18T16:45:08;101222.06;;;2.09;54.74
50268;BME280;36153;50.960;6.220;2022-12-18T16:48:09;101214.38;;;2.09;54.84
50268;BME280;36153;50.960;6.220;2022-12-18T16:51:09;101220.03;;;2.03;54.87
50268;BME280;36153;50.960;6.220;2022-12-18T16:54:10;101234.63;;;2.04;55.09
50268;BME280;36153;50.960;6.220;2022-12-18T16:57:13;101227.38;;;2.12;55.14
50268;BME280;36153;50.960;6.220;2022-12-18T17:00:14;101229.69;;;2.08;55.03
50268;BME280;36153;50.960;6.220;2022-12-18T17:03:15;101220.81;;;2.17;55.25
50268;BME280;36153;50.960;6.220;2022-12-18T17:06:15;101219.50;;;2.24;55.21
50268;BME280;36153;50.960;6.220;2022-12-18T17:09:16;101210.19;;;2.26;54.71
50268;BME280;36153;50.960;6.220;2022-12-18T17:12:17;101223.09;;;2.28;55.04
50268;BME280;36153;50.960;6.220;2022-12-18T17:15:17;101213.53;;;2.25;55.04
50268;BME280;36153;50.960;6.220;2022-12-18T17:18:17;101222.94;;;2.25;54.96
50268;BME280;36153;50.960;6.220;2022-12-18T17:21:18;101214.25;;;2.22;55.51
50268;BME280;36153;50.960;6.220;2022-12-18T17:24:19;101208.22;;;2.22;55.54
50268;BME280;36153;50.960;6.220;2022-12-18T17:27:19;101211.66;;;2.22;55.26
50268;BME280;36153;50.960;6.220;2022-12-18T17:30:20;101209.66;;;2.17;55.42